sensor_id;sensor_type;location;lat;lon;timestamp;pressure;altitude;pressure_sealevel;temperature;humidity
70323;BME280;57735;56.264;43.898;2024-01-07T00:00:56;100725.09;;;-21.49;63.13
70323;BME280;57735;56.264;43.898;2024-01-07T00:03:27;100737.69;;;-21.51;63.16
70323;BME280;57735;56.264;43.898;2024-01-07T00:05:57;100729.88;;;-21.57;62.94
70323;BME280;57735;56.264;43.898;2024-01-07T00:08:28;100738.03;;;-21.66;62.76
70323;BME280;57735;56.264;43.898;2024-01-07T00:10:59;100750.81;;;-21.61;62.98
70323;BME280;57735;56.264;43.898;2024-01-07T00:13:30;100750.78;;;-21.63;62.85
70323;BME280;57735;56.264;43.898;2024-01-07T00:16:01;100745.81;;;-21.60;62.73
70323;BME280;57735;56.264;43.898;2024-01-07T00:18:32;100756.03;;;-21.56;62.73
70323;BME280;57735;56.264;43.898;2024-01-07T00:21:04;100758.47;;;-21.60;62.57
70323;BME280;57735;56.264;43.898;2024-01-07T00:23:35;100770.22;;;-21.62;62.53
70323;BME280;57735;56.264;43.898;2024-01-07T00:26:06;100764.31;;;-21.62;62.67
70323;BME280;57735;56.264;43.898;2024-01-07T00:28:37;100761.78;;;-21.61;62.61
70323;BME280;57735;56.264;43.898;2024-01-07T00:31:08;100761.03;;;-21.58;62.70
70323;BME280;57735;56.264;43.898;2024-01-07T00:33:39;100768.69;;;-21.56;62.65
70323;BME280;57735;56.264;43.898;2024-01-07T00:36:10;100759.53;;;-21.53;62.60
70323;BME280;57735;56.264;43.898;2024-01-07T00:38:43;100761.38;;;-21.49;62.28
70323;BME280;57735;56.264;43.898;2024-01-07T00:41:14;100764.75;;;-21.48;62.36
70323;BME280;57735;56.264;43.898;2024-01-07T00:43:45;100769.78;;;-21.50;62.11
70323;BME280;57735;56.264;43.898;2024-01-07T00:46:16;100770.63;;;-21.49;62.06
70323;BME280;57735;56.264;43.898;2024-01-07T00:48:46;100767.25;;;-21.50;61.76
70323;BME280;57735;56.264;43.898;2024-01-07T00:51:17;100776.38;;;-21.53;62.07
70323;BME280;57735;56.264;43.898;2024-01-07T00:53:48;100783.22;;;-21.51;62.07
70323;BME280;57735;56.264;43.898;2024-01-07T00:56:19;100771.91;;;-21.61;61.97
70323;BME280;57735;56.264;43.898;2024-01-07T00:58:50;100766.97;;;-21.57;62.16
70323;BME280;57735;56.264;43.898;2024-01-07T01:01:20;100772.03;;;-21.57;62.23
70323;BME280;57735;56.264;43.898;2024-01-07T01:03:51;100776.44;;;-21.52;62.21
70323;BME280;57735;56.264;43.898;2024-01-07T01:06:23;100786.50;;;-21.53;61.97
70323;BME280;57735;56.264;43.898;2024-01-07T01:08:54;100786.78;;;-21.46;62.51
70323;BME280;57735;56.264;43.898;2024-01-07T01:11:24;100787.78;;;-21.41;62.49
70323;BME280;57735;56.264;43.898;2024-01-07T01:13:55;100777.00;;;-21.35;62.31
70323;BME280;57735;56.264;43.898;2024-01-07T01:16:26;100790.53;;;-21.35;62.30
70323;BME280;57735;56.264;43.898;2024-01-07T01:18:57;100790.63;;;-21.32;62.05
70323;BME280;57735;56.264;43.898;2024-01-07T01:21:28;100784.81;;;-21.29;62.00
70323;BME280;57735;56.264;43.898;2024-01-07T01:23:59;100802.56;;;-21.28;62.00
70323;BME280;57735;56.264;43.898;2024-01-07T01:26:30;100794.72;;;-21.35;61.91
70323;BME280;57735;56.264;43.898;2024-01-07T01:29:03;100789.50;;;-21.40;62.22
70323;BME280;57735;56.264;43.898;2024-01-07T01:31:34;100802.25;;;-21.37;62.39
70323;BME280;57735;56.264;43.898;2024-01-07T01:34:05;100803.06;;;-21.38;62.27
70323;BME280;57735;56.264;43.898;2024-01-07T01:36:36;100801.16;;;-21.43;62.39
70323;BME280;57735;56.264;43.898;2024-01-07T01:39:09;100816.28;;;-21.46;62.75
70323;BME280;57735;56.264;43.898;2024-01-07T01:41:45;100807.66;;;-21.51;62.68
70323;BME280;57735;56.264;43.898;2024-01-07T01:44:15;100817.78;;;-21.51;62.58
70323;BME280;57735;56.264;43.898;2024-01-07T01:46:47;100811.50;;;-21.61;62.03
70323;BME280;57735;56.264;43.898;2024-01-07T01:49:18;100816.38;;;-21.67;62.32
70323;BME280;57735;56.264;43.898;2024-01-07T01:51:52;100822.06;;;-21.73;62.29
70323;BME280;57735;56.264;43.898;2024-01-07T01:54:26;100826.00;;;-21.81;62.19
70323;BME280;57735;56.264;43.898;2024-01-07T01:56:57;100823.00;;;-21.93;62.18
70323;BME280;57735;56.264;43.898;2024-01-07T01:59:28;100829.50;;;-22.01;62.28
70323;BME280;57735;56.264;43.898;2024-01-07T02:02:01;100825.81;;;-22.09;62.32
70323;BME280;57735;56.264;43.898;2024-01-07T02:04:33;100842.25;;;-22.20;62.38
70323;BME280;57735;56.264;43.898;2024-01-07T02:07:04;100831.72;;;-22.31;62.54
70323;BME280;57735;56.264;43.898;2024-01-07T02:09:35;100848.44;;;-22.35;62.66
70323;BME280;57735;56.264;43.898;2024-01-07T02:12:06;100844.84;;;-22.40;62.80
70323;BME280;57735;56.264;43.898;2024-01-07T02:14:42;100847.09;;;-22.47;62.68
70323;BME280;57735;56.264;43.898;2024-01-07T02:17:14;100845.25;;;-22.51;62.79
70323;BME280;57735;56.264;43.898;2024-01-07T02:19:45;100856.09;;;-22.54;62.76
70323;BME280;57735;56.264;43.898;2024-01-07T02:22:18;100854.38;;;-22.55;62.99
70323;BME280;57735;56.264;43.898;2024-01-07T02:24:51;100861.94;;;-22.55;62.86
70323;BME280;57735;56.264;43.898;2024-01-07T02:27:22;100867.84;;;-22.54;62.88
70323;BME280;57735;56.264;43.898;2024-01-07T02:29:53;100870.44;;;-22.53;62.91
70323;BME280;57735;56.264;43.898;2024-01-07T02:32:24;100868.78;;;-22.52;62.65
70323;BME280;57735;56.264;43.898;2024-01-07T02:34:55;100876.97;;;-22.58;62.33
70323;BME280;57735;56.264;43.898;2024-01-07T02:37:28;100862.81;;;-22.54;62.25
70323;BME280;57735;56.264;43.898;2024-01-07T02:39:59;100875.56;;;-22.51;62.31
70323;BME280;57735;56.264;43.898;2024-01-07T02:42:34;100868.84;;;-22.51;62.34
70323;BME280;57735;56.264;43.898;2024-01-07T02:45:05;100873.03;;;-22.51;62.46
70323;BME280;57735;56.264;43.898;2024-01-07T02:47:37;100880.66;;;-22.50;62.39
70323;BME280;57735;56.264;43.898;2024-01-07T02:50:08;100883.38;;;-22.45;62.38
70323;BME280;57735;56.264;43.898;2024-01-07T02:52:38;100886.88;;;-22.42;62.49
70323;BME280;57735;56.264;43.898;2024-01-07T02:55:09;100888.59;;;-22.41;62.45
70323;BME280;57735;56.264;43.898;2024-01-07T02:57:40;100899.56;;;-22.40;62.21
70323;BME280;57735;56.264;43.898;2024-01-07T03:00:11;100897.97;;;-22.38;62.22
70323;BME280;57735;56.264;43.898;2024-01-07T03:02:45;100900.88;;;-22.29;62.31
70323;BME280;57735;56.264;43.898;2024-01-07T03:05:16;100916.31;;;-22.21;61.99
70323;BME280;57735;56.264;43.898;2024-01-07T03:07:47;100904.47;;;-22.22;61.80
70323;BME280;57735;56.264;43.898;2024-01-07T03:10:18;100907.94;;;-22.20;61.77
70323;BME280;57735;56.264;43.898;2024-01-07T03:12:49;100908.72;;;-22.21;61.65
70323;BME280;57735;56.264;43.898;2024-01-07T03:15:20;100915.31;;;-22.25;61.64
70323;BME280;57735;56.264;43.898;2024-01-07T03:17:51;100918.84;;;-22.21;61.64
70323;BME280;57735;56.264;43.898;2024-01-07T03:20:22;100923.94;;;-22.20;61.64
70323;BME280;57735;56.264;43.898;2024-01-07T03:22:53;100922.97;;;-22.23;61.26
70323;BME280;57735;56.264;43.898;2024-01-07T03:25:25;100925.19;;;-22.31;61.21
70323;BME280;57735;56.264;43.898;2024-01-07T03:27:56;100933.06;;;-22.44;61.10
70323;BME280;57735;56.264;43.898;2024-01-07T03:30:29;100935.09;;;-22.56;61.17
70323;BME280;57735;56.264;43.898;2024-01-07T03:33:00;100938.25;;;-22.62;61.49
70323;BME280;57735;56.264;43.898;2024-01-07T03:35:31;100938.25;;;-22.62;61.54
70323;BME280;57735;56.264;43.898;2024-01-07T03:38:02;100928.03;;;-22.65;61.53
70323;BME280;57735;56.264;43.898;2024-01-07T03:40:33;100928.03;;;-22.65;61.58
70323;BME280;57735;56.264;43.898;2024-01-07T03:43:04;100938.13;;;-22.65;61.62
70323;BME280;57735;56.264;43.898;2024-01-07T03:45:37;100941.31;;;-22.69;61.36
70323;BME280;57735;56.264;43.898;2024-01-07T03:48:08;100938.53;;;-22.75;61.57
70323;BME280;57735;56.264;43.898;2024-01-07T03:50:39;100946.63;;;-22.84;61.16
70323;BME280;57735;56.264;43.898;2024-01-07T03:53:10;100941.38;;;-22.88;61.66
70323;BME280;57735;56.264;43.898;2024-01-07T03:55:42;100944.50;;;-22.94;61.70
70323;BME280;57735;56.264;43.898;2024-01-07T03:58:13;100943.69;;;-22.93;61.85
70323;BME280;57735;56.264;43.898;2024-01-07T04:00:46;100945.97;;;-22.99;61.77
70323;BME280;57735;56.264;43.898;2024-01-07T04:03:17;100953.63;;;-22.97;61.84
70323;BME280;57735;56.264;43.898;2024-01-07T04:05:50;100959.53;;;-22.97;61.90
70323;BME280;57735;56.264;43.898;2024-01-07T04:08:21;100960.38;;;-22.96;61.73
70323;BME280;57735;56.264;43.898;2024-01-07T04:10:54;100960.25;;;-22.99;61.65
70323;BME280;57735;56.264;43.898;2024-01-07T04:13:25;100960.84;;;-23.05;61.54
70323;BME280;57735;56.264;43.898;2024-01-07T04:15:56;100954.72;;;-23.10;61.59
70323;BME280;57735;56.264;43.898;2024-01-07T04:18:27;100952.34;;;-23.07;61.80
70323;BME280;57735;56.264;43.898;2024-01-07T04:20:58;100965.31;;;-22.99;61.79
70323;BME280;57735;56.264;43.898;2024-01-07T04:23:28;100954.06;;;-23.06;61.46
70323;BME280;57735;56.264;43.898;2024-01-07T04:25:59;100956.66;;;-23.05;61.59
70323;BME280;57735;56.264;43.898;2024-01-07T04:28:30;100967.63;;;-23.04;61.41
70323;BME280;57735;56.264;43.898;2024-01-07T04:31:01;100968.22;;;-23.10;61.40
70323;BME280;57735;56.264;43.898;2024-01-07T04:33:32;100963.91;;;-23.12;61.52
70323;BME280;57735;56.264;43.898;2024-01-07T04:36:03;100968.97;;;-23.12;61.54
70323;BME280;57735;56.264;43.898;2024-01-07T04:38:36;100969.63;;;-23.16;61.58
70323;BME280;57735;56.264;43.898;2024-01-07T04:41:07;100984.13;;;-23.11;61.83
70323;BME280;57735;56.264;43.898;2024-01-07T04:43:38;100986.63;;;-23.12;61.73
70323;BME280;57735;56.264;43.898;2024-01-07T04:46:10;100985.47;;;-23.19;61.46
70323;BME280;57735;56.264;43.898;2024-01-07T04:48:41;100987.56;;;-23.28;61.24
70323;BME280;57735;56.264;43.898;2024-01-07T04:51:12;100989.69;;;-23.37;61.74
70323;BME280;57735;56.264;43.898;2024-01-07T04:53:43;100994.53;;;-23.42;61.67
70323;BME280;57735;56.264;43.898;2024-01-07T04:56:14;100993.94;;;-23.36;62.16
70323;BME280;57735;56.264;43.898;2024-01-07T04:58:44;100999.13;;;-23.33;62.13
70323;BME280;57735;56.264;43.898;2024-01-07T05:01:15;101002.59;;;-23.31;62.29
70323;BME280;57735;56.264;43.898;2024-01-07T05:03:46;101007.97;;;-23.23;62.66
70323;BME280;57735;56.264;43.898;2024-01-07T05:06:17;101015.59;;;-23.22;62.68
70323;BME280;57735;56.264;43.898;2024-01-07T05:08:48;101013.88;;;-23.23;62.56
70323;BME280;57735;56.264;43.898;2024-01-07T05:11:21;101015.53;;;-23.23;62.81
70323;BME280;57735;56.264;43.898;2024-01-07T05:13:52;101022.53;;;-23.18;62.76
70323;BME280;57735;56.264;43.898;2024-01-07T05:16:22;101021.72;;;-23.17;62.70
70323;BME280;57735;56.264;43.898;2024-01-07T05:18:53;101014.94;;;-23.18;62.75
70323;BME280;57735;56.264;43.898;2024-01-07T05:21:24;101018.28;;;-23.19;62.65
70323;BME280;57735;56.264;43.898;2024-01-07T05:23:55;101018.13;;;-23.22;62.64
70323;BME280;57735;56.264;43.898;2024-01-07T05:26:26;101028.88;;;-23.26;62.72
70323;BME280;57735;56.264;43.898;2024-01-07T05:28:56;101026.22;;;-23.29;63.06
70323;BME280;57735;56.264;43.898;2024-01-07T05:31:27;101018.84;;;-23.24;62.84
70323;BME280;57735;56.264;43.898;2024-01-07T05:33:58;101025.56;;;-23.25;62.73
70323;BME280;57735;56.264;43.898;2024-01-07T05:36:29;101032.41;;;-23.22;62.77
70323;BME280;57735;56.264;43.898;2024-01-07T05:39:03;101034.69;;;-23.27;62.39
70323;BME280;57735;56.264;43.898;2024-01-07T05:41:39;101046.34;;;-23.30;62.42
70323;BME280;57735;56.264;43.898;2024-01-07T05:44:11;101037.03;;;-23.31;62.38
70323;BME280;57735;56.264;43.898;2024-01-07T05:46:43;101048.00;;;-23.31;62.43
70323;BME280;57735;56.264;43.898;2024-01-07T05:49:13;101058.88;;;-23.32;62.06
70323;BME280;57735;56.264;43.898;2024-01-07T05:51:44;101060.72;;;-23.28;62.31
70323;BME280;57735;56.264;43.898;2024-01-07T05:54:15;101063.25;;;-23.28;62.08
70323;BME280;57735;56.264;43.898;2024-01-07T05:56:46;101054.63;;;-23.33;61.91
70323;BME280;57735;56.264;43.898;2024-01-07T05:59:17;101055.56;;;-23.31;62.06
70323;BME280;57735;56.264;43.898;2024-01-07T06:01:47;101067.09;;;-23.36;61.83
70323;BME280;57735;56.264;43.898;2024-01-07T06:04:18;101080.56;;;-23.35;61.86
70323;BME280;57735;56.264;43.898;2024-01-07T06:06:49;101067.72;;;-23.40;61.73
70323;BME280;57735;56.264;43.898;2024-01-07T06:09:20;101081.91;;;-23.42;61.74
70323;BME280;57735;56.264;43.898;2024-01-07T06:11:54;101081.84;;;-23.44;61.76
70323;BME280;57735;56.264;43.898;2024-01-07T06:14:26;101086.88;;;-23.44;62.05
70323;BME280;57735;56.264;43.898;2024-01-07T06:16:59;101084.38;;;-23.44;62.00
70323;BME280;57735;56.264;43.898;2024-01-07T06:19:30;101088.34;;;-23.49;61.94
70323;BME280;57735;56.264;43.898;2024-01-07T06:22:01;101094.84;;;-23.54;62.12
70323;BME280;57735;56.264;43.898;2024-01-07T06:24:32;101096.00;;;-23.65;62.20
70323;BME280;57735;56.264;43.898;2024-01-07T06:27:08;101103.66;;;-23.63;62.55
70323;BME280;57735;56.264;43.898;2024-01-07T06:29:39;101107.09;;;-23.61;62.47
70323;BME280;57735;56.264;43.898;2024-01-07T06:32:10;101102.28;;;-23.57;62.23
70323;BME280;57735;56.264;43.898;2024-01-07T06:34:41;101113.28;;;-23.55;62.35
70323;BME280;57735;56.264;43.898;2024-01-07T06:37:18;101104.78;;;-23.57;62.28
70323;BME280;57735;56.264;43.898;2024-01-07T06:39:51;101107.63;;;-23.51;62.23
70323;BME280;57735;56.264;43.898;2024-01-07T06:42:22;101109.50;;;-23.45;62.02
70323;BME280;57735;56.264;43.898;2024-01-07T06:44:53;101120.47;;;-23.45;61.89
70323;BME280;57735;56.264;43.898;2024-01-07T06:47:24;101125.25;;;-23.51;61.62
70323;BME280;57735;56.264;43.898;2024-01-07T06:49:57;101123.31;;;-23.56;61.55
70323;BME280;57735;56.264;43.898;2024-01-07T06:52:28;101126.09;;;-23.50;61.58
70323;BME280;57735;56.264;43.898;2024-01-07T06:54:59;101130.69;;;-23.42;61.51
70323;BME280;57735;56.264;43.898;2024-01-07T06:57:32;101140.94;;;-23.39;61.05
70323;BME280;57735;56.264;43.898;2024-01-07T07:00:04;101141.22;;;-23.32;61.28
70323;BME280;57735;56.264;43.898;2024-01-07T07:02:35;101151.31;;;-23.32;60.73
70323;BME280;57735;56.264;43.898;2024-01-07T07:05:06;101146.53;;;-23.44;60.57
70323;BME280;57735;56.264;43.898;2024-01-07T07:07:42;101147.56;;;-23.41;60.73
70323;BME280;57735;56.264;43.898;2024-01-07T07:10:13;101147.72;;;-23.20;60.94
70323;BME280;57735;56.264;43.898;2024-01-07T07:12:46;101154.03;;;-23.10;60.65
70323;BME280;57735;56.264;43.898;2024-01-07T07:15:17;101156.63;;;-23.09;60.31
70323;BME280;57735;56.264;43.898;2024-01-07T07:17:48;101145.41;;;-22.97;60.42
70323;BME280;57735;56.264;43.898;2024-01-07T07:20:19;101152.34;;;-22.92;60.27
70323;BME280;57735;56.264;43.898;2024-01-07T07:22:50;101154.72;;;-22.77;60.26
70323;BME280;57735;56.264;43.898;2024-01-07T07:25:21;101157.09;;;-22.61;60.31
70323;BME280;57735;56.264;43.898;2024-01-07T07:27:52;101183.97;;;-22.63;59.44
70323;BME280;57735;56.264;43.898;2024-01-07T07:30:23;101177.59;;;-22.55;59.80
70323;BME280;57735;56.264;43.898;2024-01-07T07:32:54;101182.91;;;-22.49;59.50
70323;BME280;57735;56.264;43.898;2024-01-07T07:35:27;101182.13;;;-22.48;59.33
70323;BME280;57735;56.264;43.898;2024-01-07T07:37:58;101180.63;;;-22.43;59.63
70323;BME280;57735;56.264;43.898;2024-01-07T07:40:29;101191.16;;;-22.34;59.30
70323;BME280;57735;56.264;43.898;2024-01-07T07:43:00;101188.03;;;-22.28;59.18
70323;BME280;57735;56.264;43.898;2024-01-07T07:45:31;101188.09;;;-22.26;59.01
70323;BME280;57735;56.264;43.898;2024-01-07T07:48:03;101185.03;;;-22.39;58.97
70323;BME280;57735;56.264;43.898;2024-01-07T07:50:33;101184.25;;;-22.38;59.39
70323;BME280;57735;56.264;43.898;2024-01-07T07:53:04;101190.63;;;-22.26;59.64
70323;BME280;57735;56.264;43.898;2024-01-07T07:55:35;101195.44;;;-22.13;59.61
70323;BME280;57735;56.264;43.898;2024-01-07T07:58:06;101185.19;;;-22.16;59.17
70323;BME280;57735;56.264;43.898;2024-01-07T08:00:37;101191.44;;;-22.08;59.65
70323;BME280;57735;56.264;43.898;2024-01-07T08:03:11;101185.50;;;-22.09;59.23
70323;BME280;57735;56.264;43.898;2024-01-07T08:05:41;101186.66;;;-22.02;59.36
70323;BME280;57735;56.264;43.898;2024-01-07T08:08:12;101198.09;;;-21.89;59.78
70323;BME280;57735;56.264;43.898;2024-01-07T08:10:43;101207.34;;;-21.90;59.67
70323;BME280;57735;56.264;43.898;2024-01-07T08:13:14;101204.16;;;-21.86;59.73
70323;BME280;57735;56.264;43.898;2024-01-07T08:15:48;101206.50;;;-21.90;59.66
70323;BME280;57735;56.264;43.898;2024-01-07T08:18:19;101212.72;;;-22.03;59.88
70323;BME280;57735;56.264;43.898;2024-01-07T08:20:50;101215.38;;;-22.00;60.26
70323;BME280;57735;56.264;43.898;2024-01-07T08:23:21;101215.25;;;-22.03;60.91
70323;BME280;57735;56.264;43.898;2024-01-07T08:25:53;101214.94;;;-21.90;61.18
70323;BME280;57735;56.264;43.898;2024-01-07T08:28:24;101214.56;;;-21.80;60.77
70323;BME280;57735;56.264;43.898;2024-01-07T08:30:55;101221.34;;;-21.79;60.90
70323;BME280;57735;56.264;43.898;2024-01-07T08:33:26;101224.84;;;-21.75;60.67
70323;BME280;57735;56.264;43.898;2024-01-07T08:35:59;101213.13;;;-21.92;60.93
70323;BME280;57735;56.264;43.898;2024-01-07T08:38:30;101237.56;;;-21.93;61.55
70323;BME280;57735;56.264;43.898;2024-01-07T08:41:08;101229.44;;;-21.86;61.94
70323;BME280;57735;56.264;43.898;2024-01-07T08:43:40;101235.50;;;-21.82;61.43
70323;BME280;57735;56.264;43.898;2024-01-07T08:46:11;101231.19;;;-21.85;61.17
70323;BME280;57735;56.264;43.898;2024-01-07T08:48:43;101231.84;;;-21.89;61.41
70323;BME280;57735;56.264;43.898;2024-01-07T08:51:14;101237.31;;;-21.80;61.91
70323;BME280;57735;56.264;43.898;2024-01-07T08:53:46;101228.56;;;-21.67;61.79
70323;BME280;57735;56.264;43.898;2024-01-07T08:56:19;101229.00;;;-21.56;61.46
70323;BME280;57735;56.264;43.898;2024-01-07T08:58:50;101239.22;;;-21.34;61.28
70323;BME280;57735;56.264;43.898;2024-01-07T09:01:21;101239.59;;;-21.25;60.85
70323;BME280;57735;56.264;43.898;2024-01-07T09:03:51;101243.19;;;-21.20;60.44
70323;BME280;57735;56.264;43.898;2024-01-07T09:06:22;101236.03;;;-21.08;60.49
70323;BME280;57735;56.264;43.898;2024-01-07T09:08:53;101226.13;;;-21.03;60.15
70323;BME280;57735;56.264;43.898;2024-01-07T09:11:24;101218.03;;;-20.95;59.76
70323;BME280;57735;56.264;43.898;2024-01-07T09:13:55;101218.13;;;-20.92;59.58
70323;BME280;57735;56.264;43.898;2024-01-07T09:16:26;101223.84;;;-20.97;59.29
70323;BME280;57735;56.264;43.898;2024-01-07T09:18:57;101226.31;;;-20.99;59.15
70323;BME280;57735;56.264;43.898;2024-01-07T09:21:28;101230.03;;;-21.11;59.12
70323;BME280;57735;56.264;43.898;2024-01-07T09:23:58;101243.56;;;-21.32;59.02
70323;BME280;57735;56.264;43.898;2024-01-07T09:26:30;101225.31;;;-21.44;59.37
70323;BME280;57735;56.264;43.898;2024-01-07T09:29:00;101230.94;;;-21.51;59.87
70323;BME280;57735;56.264;43.898;2024-01-07T09:31:32;101223.22;;;-21.54;60.06
70323;BME280;57735;56.264;43.898;2024-01-07T09:34:03;101232.00;;;-21.46;60.15
70323;BME280;57735;56.264;43.898;2024-01-07T09:36:34;101232.09;;;-21.43;60.42
70323;BME280;57735;56.264;43.898;2024-01-07T09:39:09;101230.44;;;-21.42;60.47
70323;BME280;57735;56.264;43.898;2024-01-07T09:41:43;101250.22;;;-21.34;60.60
70323;BME280;57735;56.264;43.898;2024-01-07T09:44:14;101248.41;;;-21.36;60.20
70323;BME280;57735;56.264;43.898;2024-01-07T09:46:46;101251.47;;;-21.43;60.41
70323;BME280;57735;56.264;43.898;2024-01-07T09:49:20;101231.75;;;-21.52;60.33
70323;BME280;57735;56.264;43.898;2024-01-07T09:51:54;101241.00;;;-21.52;60.61
70323;BME280;57735;56.264;43.898;2024-01-07T09:54:30;101242.06;;;-21.47;60.70
70323;BME280;57735;56.264;43.898;2024-01-07T09:57:02;101240.56;;;-21.42;60.75
70323;BME280;57735;56.264;43.898;2024-01-07T09:59:35;101233.44;;;-21.32;61.06
70323;BME280;57735;56.264;43.898;2024-01-07T10:02:07;101244.00;;;-21.21;60.77
70323;BME280;57735;56.264;43.898;2024-01-07T10:04:39;101243.22;;;-21.18;60.35
70323;BME280;57735;56.264;43.898;2024-01-07T10:07:10;101234.78;;;-21.19;60.38
70323;BME280;57735;56.264;43.898;2024-01-07T10:09:41;101239.94;;;-21.16;60.36
70323;BME280;57735;56.264;43.898;2024-01-07T10:12:15;101240.38;;;-21.05;60.28
70323;BME280;57735;56.264;43.898;2024-01-07T10:14:46;101244.69;;;-21.03;59.99
70323;BME280;57735;56.264;43.898;2024-01-07T10:17:17;101259.47;;;-21.13;59.84
70323;BME280;57735;56.264;43.898;2024-01-07T10:19:48;101264.97;;;-21.23;59.72
70323;BME280;57735;56.264;43.898;2024-01-07T10:22:19;101250.63;;;-21.44;60.02
70323;BME280;57735;56.264;43.898;2024-01-07T10:24:53;101256.16;;;-21.52;60.49
70323;BME280;57735;56.264;43.898;2024-01-07T10:27:24;101270.28;;;-21.57;60.87
70323;BME280;57735;56.264;43.898;2024-01-07T10:29:58;101273.00;;;-21.53;60.98
70323;BME280;57735;56.264;43.898;2024-01-07T10:32:32;101274.81;;;-21.50;61.01
70323;BME280;57735;56.264;43.898;2024-01-07T10:35:04;101286.72;;;-21.48;61.04
70323;BME280;57735;56.264;43.898;2024-01-07T10:37:36;101291.97;;;-21.43;61.14
70323;BME280;57735;56.264;43.898;2024-01-07T10:40:11;101295.56;;;-21.38;60.90
70323;BME280;57735;56.264;43.898;2024-01-07T10:42:43;101291.97;;;-21.43;60.91
70323;BME280;57735;56.264;43.898;2024-01-07T10:45:15;101292.72;;;-21.46;60.91
70323;BME280;57735;56.264;43.898;2024-01-07T10:47:50;101293.31;;;-21.51;60.81
70323;BME280;57735;56.264;43.898;2024-01-07T10:50:26;101308.78;;;-21.65;60.94
70323;BME280;57735;56.264;43.898;2024-01-07T10:52:58;101306.38;;;-21.62;61.30
70323;BME280;57735;56.264;43.898;2024-01-07T10:55:37;101292.09;;;-21.60;61.38
70323;BME280;57735;56.264;43.898;2024-01-07T10:58:09;101300.78;;;-21.54;61.04
70323;BME280;57735;56.264;43.898;2024-01-07T11:00:41;101311.63;;;-21.57;60.99
70323;BME280;57735;56.264;43.898;2024-01-07T11:03:18;101301.69;;;-21.52;61.22
70323;BME280;57735;56.264;43.898;2024-01-07T11:06:46;101300.13;;;-21.50;61.07
70323;BME280;57735;56.264;43.898;2024-01-07T11:12:25;101322.94;;;-21.49;61.06
70323;BME280;57735;56.264;43.898;2024-01-07T11:14:56;101324.81;;;-21.45;61.05
70323;BME280;57735;56.264;43.898;2024-01-07T11:17:48;101320.59;;;-21.44;61.15
70323;BME280;57735;56.264;43.898;2024-01-07T11:20:21;101320.34;;;-21.50;61.18
70323;BME280;57735;56.264;43.898;2024-01-07T11:23:28;101329.59;;;-21.51;61.47
70323;BME280;57735;56.264;43.898;2024-01-07T11:26:00;101331.06;;;-21.56;61.39
70323;BME280;57735;56.264;43.898;2024-01-07T11:28:51;101331.53;;;-21.65;61.49
70323;BME280;57735;56.264;43.898;2024-01-07T11:34:43;101336.53;;;-21.66;62.02
70323;BME280;57735;56.264;43.898;2024-01-07T11:37:16;101350.19;;;-21.63;62.07
70323;BME280;57735;56.264;43.898;2024-01-07T11:39:50;101360.28;;;-21.63;62.16
70323;BME280;57735;56.264;43.898;2024-01-07T11:42:22;101362.81;;;-21.63;62.21
70323;BME280;57735;56.264;43.898;2024-01-07T11:44:55;101365.13;;;-21.67;62.26
70323;BME280;57735;56.264;43.898;2024-01-07T11:47:26;101368.19;;;-21.74;62.17
70323;BME280;57735;56.264;43.898;2024-01-07T11:49:58;101386.56;;;-21.78;62.54
70323;BME280;57735;56.264;43.898;2024-01-07T11:52:32;101375.50;;;-21.80;62.41
70323;BME280;57735;56.264;43.898;2024-01-07T11:55:06;101378.53;;;-21.87;62.69
70323;BME280;57735;56.264;43.898;2024-01-07T11:57:38;101392.56;;;-21.94;62.78
70323;BME280;57735;56.264;43.898;2024-01-07T12:00:09;101379.78;;;-21.97;63.15
70323;BME280;57735;56.264;43.898;2024-01-07T12:02:40;101388.31;;;-21.95;63.24
70323;BME280;57735;56.264;43.898;2024-01-07T12:05:14;101397.81;;;-21.89;63.40
70323;BME280;57735;56.264;43.898;2024-01-07T12:07:46;101390.47;;;-21.85;63.18
70323;BME280;57735;56.264;43.898;2024-01-07T12:10:17;101398.34;;;-21.79;63.08
70323;BME280;57735;56.264;43.898;2024-01-07T12:12:48;101397.59;;;-21.76;63.02
70323;BME280;57735;56.264;43.898;2024-01-07T12:15:20;101407.38;;;-21.84;62.72
70323;BME280;57735;56.264;43.898;2024-01-07T12:17:57;101408.00;;;-21.88;62.70
70323;BME280;57735;56.264;43.898;2024-01-07T12:20:28;101405.25;;;-21.92;62.94
70323;BME280;57735;56.264;43.898;2024-01-07T12:23:08;101397.38;;;-22.00;63.02
70323;BME280;57735;56.264;43.898;2024-01-07T12:25:42;101399.91;;;-22.00;63.33
70323;BME280;57735;56.264;43.898;2024-01-07T12:28:13;101391.56;;;-21.98;63.30
70323;BME280;57735;56.264;43.898;2024-01-07T12:30:44;101391.66;;;-21.96;63.37
70323;BME280;57735;56.264;43.898;2024-01-07T12:33:21;101404.41;;;-21.93;63.37
70323;BME280;57735;56.264;43.898;2024-01-07T12:35:52;101402.72;;;-21.92;63.51
70323;BME280;57735;56.264;43.898;2024-01-07T12:38:29;101408.53;;;-21.95;63.56
70323;BME280;57735;56.264;43.898;2024-01-07T12:41:00;101410.25;;;-21.94;63.46
70323;BME280;57735;56.264;43.898;2024-01-07T12:43:31;101401.06;;;-21.92;63.67
70323;BME280;57735;56.264;43.898;2024-01-07T12:46:02;101404.53;;;-21.90;63.67
70323;BME280;57735;56.264;43.898;2024-01-07T12:48:38;101411.19;;;-21.92;63.63
70323;BME280;57735;56.264;43.898;2024-01-07T12:51:08;101413.63;;;-21.93;63.71
70323;BME280;57735;56.264;43.898;2024-01-07T12:53:43;101412.91;;;-21.91;63.75
70323;BME280;57735;56.264;43.898;2024-01-07T12:56:14;101405.34;;;-21.91;63.85
70323;BME280;57735;56.264;43.898;2024-01-07T12:58:48;101409.53;;;-21.91;63.83
70323;BME280;57735;56.264;43.898;2024-01-07T13:01:18;101419.72;;;-21.90;63.83